YVR weather

Vancouver International Airport
Vancouver, British Columbia, Canada

Public forecast

Using degrees Celsius for public forecast. Weather courtesy of forecast.io.

METAR (pilot weather report)

Retrieved 2017/08/18 02:00 UTC (20 minutes ago):

CYVR 180200Z 16008KT 30SM SKC 22/13 A3011 RMK SLP196 DENSITY ALT 600FT

TAF (pilot weather forecast)

Retrieved 2017/08/18 03:42 UTC (0 seconds ago):

TAF CYVR 180238Z 1803/1906 15006KT P6SM FEW040 BECMG 1804/1806 10010KT FM181500 10012KT P6SM FEW020 BKN080 FM190000 12010KT P6SM SCT020 BKN040 BECMG 1904/1906 29010KT RMK NXT FCST BY 180600Z